sensor_id;sensor_type;location;lat;lon;timestamp;pressure;altitude;pressure_sealevel;temperature;humidity
32083;BME280;18597;48.328;7.932;2022-12-18T00:02:06;100723.16;;;-7.99;100.00
32083;BME280;18597;48.328;7.932;2022-12-18T00:04:32;100724.06;;;-7.88;100.00
32083;BME280;18597;48.328;7.932;2022-12-18T00:06:58;100720.34;;;-8.25;100.00
32083;BME280;18597;48.328;7.932;2022-12-18T00:09:24;100726.31;;;-8.40;100.00
32083;BME280;18597;48.328;7.932;2022-12-18T00:11:49;100734.16;;;-8.29;100.00
32083;BME280;18597;48.328;7.932;2022-12-18T00:14:16;100740.13;;;-8.41;100.00
32083;BME280;18597;48.328;7.932;2022-12-18T00:16:44;100741.84;;;-8.44;100.00
32083;BME280;18597;48.328;7.932;2022-12-18T00:19:11;100752.13;;;-8.53;100.00
32083;BME280;18597;48.328;7.932;2022-12-18T00:21:37;100756.44;;;-8.51;100.00
32083;BME280;18597;48.328;7.932;2022-12-18T00:24:03;100741.69;;;-8.61;100.00
32083;BME280;18597;48.328;7.932;2022-12-18T00:26:33;100745.16;;;-8.57;100.00
32083;BME280;18597;48.328;7.932;2022-12-18T00:29:03;100741.72;;;-8.56;100.00
32083;BME280;18597;48.328;7.932;2022-12-18T00:31:30;100733.16;;;-8.48;100.00
32083;BME280;18597;48.328;7.932;2022-12-18T00:33:57;100735.66;;;-8.58;100.00
32083;BME280;18597;48.328;7.932;2022-12-18T00:36:27;100741.63;;;-8.62;100.00
32083;BME280;18597;48.328;7.932;2022-12-18T00:38:55;100739.97;;;-8.59;100.00
32083;BME280;18597;48.328;7.932;2022-12-18T00:41:21;100737.31;;;-8.62;100.00
32083;BME280;18597;48.328;7.932;2022-12-18T00:44:09;100742.38;;;-8.76;100.00
32083;BME280;18597;48.328;7.932;2022-12-18T00:46:36;100741.47;;;-8.79;100.00
32083;BME280;18597;48.328;7.932;2022-12-18T00:49:02;100752.69;;;-8.79;100.00
32083;BME280;18597;48.328;7.932;2022-12-18T00:51:28;100746.66;;;-8.78;100.00
32083;BME280;18597;48.328;7.932;2022-12-18T00:53:54;100748.34;;;-8.83;100.00
32083;BME280;18597;48.328;7.932;2022-12-18T00:56:19;100743.22;;;-8.78;100.00
32083;BME280;18597;48.328;7.932;2022-12-18T00:58:45;100748.28;;;-8.89;100.00
32083;BME280;18597;48.328;7.932;2022-12-18T01:01:11;100745.63;;;-8.93;100.00
32083;BME280;18597;48.328;7.932;2022-12-18T01:03:37;100743.81;;;-9.02;100.00
32083;BME280;18597;48.328;7.932;2022-12-18T01:06:08;100739.44;;;-9.08;100.00
32083;BME280;18597;48.328;7.932;2022-12-18T01:08:35;100734.28;;;-9.06;100.00
32083;BME280;18597;48.328;7.932;2022-12-18T01:11:07;100734.31;;;-9.03;100.00
32083;BME280;18597;48.328;7.932;2022-12-18T01:13:33;100744.84;;;-8.89;100.00
32083;BME280;18597;48.328;7.932;2022-12-18T01:15:59;100748.13;;;-9.04;100.00
32083;BME280;18597;48.328;7.932;2022-12-18T01:18:25;100750.63;;;-9.09;100.00
32083;BME280;18597;48.328;7.932;2022-12-18T01:20:51;100755.81;;;-9.10;100.00
32083;BME280;18597;48.328;7.932;2022-12-18T01:23:16;100760.19;;;-9.06;100.00
32083;BME280;18597;48.328;7.932;2022-12-18T01:25:42;100760.97;;;-9.13;100.00
32083;BME280;18597;48.328;7.932;2022-12-18T01:28:08;100758.41;;;-9.09;100.00
32083;BME280;18597;48.328;7.932;2022-12-18T01:30:34;100758.38;;;-9.10;100.00
32083;BME280;18597;48.328;7.932;2022-12-18T01:32:59;100754.94;;;-9.12;100.00
32083;BME280;18597;48.328;7.932;2022-12-18T01:35:25;100761.00;;;-9.09;100.00
32083;BME280;18597;48.328;7.932;2022-12-18T01:37:55;100760.97;;;-9.13;100.00
32083;BME280;18597;48.328;7.932;2022-12-18T01:40:21;100760.13;;;-9.09;100.00
32083;BME280;18597;48.328;7.932;2022-12-18T01:42:54;100759.22;;;-9.13;100.00
32083;BME280;18597;48.328;7.932;2022-12-18T01:48:00;100752.44;;;-9.03;100.00
32083;BME280;18597;48.328;7.932;2022-12-18T01:50:40;100761.94;;;-9.01;100.00
32083;BME280;18597;48.328;7.932;2022-12-18T01:53:15;100768.06;;;-8.97;100.00
32083;BME280;18597;48.328;7.932;2022-12-18T01:55:48;100775.56;;;-9.15;100.00
32083;BME280;18597;48.328;7.932;2022-12-18T01:58:15;100768.63;;;-9.21;100.00
32083;BME280;18597;48.328;7.932;2022-12-18T02:00:42;100778.91;;;-9.27;100.00
32083;BME280;18597;48.328;7.932;2022-12-18T02:03:08;100769.69;;;-9.04;100.00
32083;BME280;18597;48.328;7.932;2022-12-18T02:08:41;100767.81;;;-9.15;100.00
32083;BME280;18597;48.328;7.932;2022-12-18T02:14:35;100760.19;;;-9.06;100.00
32083;BME280;18597;48.328;7.932;2022-12-18T02:17:15;100767.09;;;-9.05;100.00
32083;BME280;18597;48.328;7.932;2022-12-18T02:20:11;100765.41;;;-9.02;100.00
32083;BME280;18597;48.328;7.932;2022-12-18T02:26:05;100779.31;;;-8.92;100.00
32083;BME280;18597;48.328;7.932;2022-12-18T02:28:36;100783.63;;;-8.92;100.00
32083;BME280;18597;48.328;7.932;2022-12-18T02:31:11;100780.91;;;-9.03;100.00
32083;BME280;18597;48.328;7.932;2022-12-18T02:33:53;100770.47;;;-9.12;100.00
32083;BME280;18597;48.328;7.932;2022-12-18T02:36:22;100771.25;;;-9.16;100.00
32083;BME280;18597;48.328;7.932;2022-12-18T02:38:50;100774.78;;;-9.10;100.00
32083;BME280;18597;48.328;7.932;2022-12-18T02:41:18;100770.31;;;-9.23;100.00
32083;BME280;18597;48.328;7.932;2022-12-18T02:43:48;100770.06;;;-9.44;100.00
32083;BME280;18597;48.328;7.932;2022-12-18T02:46:43;100779.88;;;-9.80;100.00
32083;BME280;18597;48.328;7.932;2022-12-18T02:55:03;100765.19;;;-10.37;100.00
32083;BME280;18597;48.328;7.932;2022-12-18T02:57:57;100769.22;;;-10.52;100.00
32083;BME280;18597;48.328;7.932;2022-12-18T03:00:53;100773.41;;;-10.59;100.00
32083;BME280;18597;48.328;7.932;2022-12-18T03:03:47;100780.78;;;-10.80;100.00
32083;BME280;18597;48.328;7.932;2022-12-18T03:06:25;100785.09;;;-10.79;100.00
32083;BME280;18597;48.328;7.932;2022-12-18T03:09:01;100781.59;;;-10.83;100.00
32083;BME280;18597;48.328;7.932;2022-12-18T03:11:31;100786.69;;;-10.86;100.00
32083;BME280;18597;48.328;7.932;2022-12-18T03:14:21;100790.97;;;-10.88;100.00
32083;BME280;18597;48.328;7.932;2022-12-18T03:16:52;100788.34;;;-10.89;100.00
32083;BME280;18597;48.328;7.932;2022-12-18T03:19:23;100792.19;;;-10.68;100.00
32083;BME280;18597;48.328;7.932;2022-12-18T03:21:55;100790.47;;;-10.69;100.00
32083;BME280;18597;48.328;7.932;2022-12-18T03:24:25;100782.44;;;-10.84;100.00
32083;BME280;18597;48.328;7.932;2022-12-18T03:26:58;100795.47;;;-10.78;100.00
32083;BME280;18597;48.328;7.932;2022-12-18T03:29:38;100783.16;;;-10.91;100.00
32083;BME280;18597;48.328;7.932;2022-12-18T03:32:10;100787.47;;;-10.90;100.00
32083;BME280;18597;48.328;7.932;2022-12-18T03:34:40;100796.78;;;-10.97;100.00
32083;BME280;18597;48.328;7.932;2022-12-18T03:37:07;100786.53;;;-10.94;100.00
32083;BME280;18597;48.328;7.932;2022-12-18T03:39:34;100776.22;;;-10.94;100.00
32083;BME280;18597;48.328;7.932;2022-12-18T03:42:18;100789.75;;;-11.04;100.00
32083;BME280;18597;48.328;7.932;2022-12-18T03:45:11;100789.53;;;-11.16;100.00
32083;BME280;18597;48.328;7.932;2022-12-18T03:48:13;100791.38;;;-11.10;100.00
32083;BME280;18597;48.328;7.932;2022-12-18T03:51:02;100799.84;;;-11.16;100.00
32083;BME280;18597;48.328;7.932;2022-12-18T03:53:47;100792.00;;;-11.21;100.00
32083;BME280;18597;48.328;7.932;2022-12-18T03:56:16;100791.97;;;-11.24;100.00
32083;BME280;18597;48.328;7.932;2022-12-18T03:58:43;100795.31;;;-11.28;100.00
32083;BME280;18597;48.328;7.932;2022-12-18T04:01:13;100784.75;;;-11.40;100.00
32083;BME280;18597;48.328;7.932;2022-12-18T04:03:42;100790.38;;;-11.17;100.00
32083;BME280;18597;48.328;7.932;2022-12-18T04:06:08;100798.66;;;-11.32;100.00
32083;BME280;18597;48.328;7.932;2022-12-18T04:08:35;100796.66;;;-11.45;100.00
32083;BME280;18597;48.328;7.932;2022-12-18T04:11:02;100795.78;;;-11.45;100.00
32083;BME280;18597;48.328;7.932;2022-12-18T04:13:33;100792.00;;;-11.61;100.00
32083;BME280;18597;48.328;7.932;2022-12-18T04:16:00;100789.41;;;-11.63;100.00
32083;BME280;18597;48.328;7.932;2022-12-18T04:18:25;100788.69;;;-11.56;100.00
32083;BME280;18597;48.328;7.932;2022-12-18T04:20:51;100786.72;;;-11.66;100.00
32083;BME280;18597;48.328;7.932;2022-12-18T04:23:17;100785.00;;;-11.67;100.00
32083;BME280;18597;48.328;7.932;2022-12-18T04:25:43;100784.06;;;-11.70;100.00
32083;BME280;18597;48.328;7.932;2022-12-18T04:28:09;100772.81;;;-11.74;100.00
32083;BME280;18597;48.328;7.932;2022-12-18T04:30:34;100782.03;;;-11.85;100.00
32083;BME280;18597;48.328;7.932;2022-12-18T04:33:00;100787.78;;;-11.95;100.00
32083;BME280;18597;48.328;7.932;2022-12-18T04:35:26;100783.34;;;-12.02;100.00
32083;BME280;18597;48.328;7.932;2022-12-18T04:37:52;100791.88;;;-12.05;100.00
32083;BME280;18597;48.328;7.932;2022-12-18T04:40:18;100778.25;;;-12.01;100.00
32083;BME280;18597;48.328;7.932;2022-12-18T04:42:44;100786.72;;;-12.05;100.00
32083;BME280;18597;48.328;7.932;2022-12-18T04:45:10;100783.16;;;-12.10;100.00
32083;BME280;18597;48.328;7.932;2022-12-18T04:47:36;100783.84;;;-12.17;100.00
32083;BME280;18597;48.328;7.932;2022-12-18T04:50:02;100775.22;;;-11.83;100.00
32083;BME280;18597;48.328;7.932;2022-12-18T04:52:28;100784.31;;;-11.97;100.00
32083;BME280;18597;48.328;7.932;2022-12-18T04:54:53;100791.00;;;-12.06;100.00
32083;BME280;18597;48.328;7.932;2022-12-18T04:57:19;100784.03;;;-12.10;100.00
32083;BME280;18597;48.328;7.932;2022-12-18T04:59:45;100771.13;;;-12.10;100.00
32083;BME280;18597;48.328;7.932;2022-12-18T05:02:11;100772.66;;;-12.18;100.00
32083;BME280;18597;48.328;7.932;2022-12-18T05:04:37;100768.16;;;-12.26;100.00
32083;BME280;18597;48.328;7.932;2022-12-18T05:07:02;100764.22;;;-12.12;100.00
32083;BME280;18597;48.328;7.932;2022-12-18T05:09:28;100762.47;;;-12.13;100.00
32083;BME280;18597;48.328;7.932;2022-12-18T05:11:54;100765.72;;;-12.22;100.00
32083;BME280;18597;48.328;7.932;2022-12-18T05:14:20;100765.09;;;-12.12;100.00
32083;BME280;18597;48.328;7.932;2022-12-18T05:16:45;100767.28;;;-11.92;100.00
32083;BME280;18597;48.328;7.932;2022-12-18T05:19:11;100759.88;;;-12.15;100.00
32083;BME280;18597;48.328;7.932;2022-12-18T05:21:37;100757.88;;;-12.25;100.00
32083;BME280;18597;48.328;7.932;2022-12-18T05:24:03;100761.97;;;-12.35;100.00
32083;BME280;18597;48.328;7.932;2022-12-18T05:26:29;100764.53;;;-12.35;100.00
32083;BME280;18597;48.328;7.932;2022-12-18T05:28:55;100765.78;;;-12.19;100.00
32083;BME280;18597;48.328;7.932;2022-12-18T05:31:21;100765.38;;;-12.36;100.00
32083;BME280;18597;48.328;7.932;2022-12-18T05:33:47;100777.19;;;-12.44;100.00
32083;BME280;18597;48.328;7.932;2022-12-18T05:36:12;100774.84;;;-12.35;100.00
32083;BME280;18597;48.328;7.932;2022-12-18T05:38:39;100774.44;;;-12.50;100.00
32083;BME280;18597;48.328;7.932;2022-12-18T05:41:07;100778.06;;;-12.43;100.00
32083;BME280;18597;48.328;7.932;2022-12-18T05:43:35;100781.94;;;-12.59;100.00
32083;BME280;18597;48.328;7.932;2022-12-18T05:46:05;100778.38;;;-12.64;100.00
32083;BME280;18597;48.328;7.932;2022-12-18T05:48:32;100782.34;;;-12.77;100.00
32083;BME280;18597;48.328;7.932;2022-12-18T05:51:08;100772.91;;;-12.76;100.00
32083;BME280;18597;48.328;7.932;2022-12-18T05:53:36;100784.75;;;-12.83;100.00
32083;BME280;18597;48.328;7.932;2022-12-18T05:56:06;100788.88;;;-12.88;100.00
32083;BME280;18597;48.328;7.932;2022-12-18T05:58:32;100791.41;;;-12.90;100.00
32083;BME280;18597;48.328;7.932;2022-12-18T06:01:13;100798.94;;;-12.97;100.00
32083;BME280;18597;48.328;7.932;2022-12-18T06:03:39;100804.06;;;-12.97;100.00
32083;BME280;18597;48.328;7.932;2022-12-18T06:06:17;100810.06;;;-12.98;100.00
32083;BME280;18597;48.328;7.932;2022-12-18T06:08:44;100810.88;;;-12.99;100.00
32083;BME280;18597;48.328;7.932;2022-12-18T06:11:10;100814.91;;;-13.07;100.00
32083;BME280;18597;48.328;7.932;2022-12-18T06:13:36;100813.97;;;-13.11;100.00
32083;BME280;18597;48.328;7.932;2022-12-18T06:16:04;100819.16;;;-13.09;100.00
32083;BME280;18597;48.328;7.932;2022-12-18T06:18:31;100821.72;;;-13.09;100.00
32083;BME280;18597;48.328;7.932;2022-12-18T06:20:58;100824.44;;;-13.05;100.00
32083;BME280;18597;48.328;7.932;2022-12-18T06:23:24;100826.03;;;-13.08;100.00
32083;BME280;18597;48.328;7.932;2022-12-18T06:25:51;100831.03;;;-13.14;100.00
32083;BME280;18597;48.328;7.932;2022-12-18T06:28:17;100832.97;;;-13.06;100.00
32083;BME280;18597;48.328;7.932;2022-12-18T06:30:44;100838.75;;;-13.14;100.00
32083;BME280;18597;48.328;7.932;2022-12-18T06:33:10;100849.63;;;-13.23;100.00
32083;BME280;18597;48.328;7.932;2022-12-18T06:35:36;100846.16;;;-13.25;100.00
32083;BME280;18597;48.328;7.932;2022-12-18T06:38:03;100854.66;;;-13.28;100.00
32083;BME280;18597;48.328;7.932;2022-12-18T06:40:29;100858.88;;;-13.30;100.00
32083;BME280;18597;48.328;7.932;2022-12-18T06:42:55;100856.06;;;-13.37;100.00
32083;BME280;18597;48.328;7.932;2022-12-18T06:45:21;100862.16;;;-13.35;100.00
32083;BME280;18597;48.328;7.932;2022-12-18T06:47:47;100859.41;;;-13.40;100.00
32083;BME280;18597;48.328;7.932;2022-12-18T06:50:13;100863.00;;;-13.35;100.00
32083;BME280;18597;48.328;7.932;2022-12-18T06:52:39;100862.25;;;-13.31;100.00
32083;BME280;18597;48.328;7.932;2022-12-18T06:55:07;100862.16;;;-13.05;100.00
32083;BME280;18597;48.328;7.932;2022-12-18T06:57:34;100866.00;;;-12.91;100.00
32083;BME280;18597;48.328;7.932;2022-12-18T07:00:00;100868.47;;;-12.94;100.00
32083;BME280;18597;48.328;7.932;2022-12-18T07:02:25;100862.13;;;-13.07;100.00
32083;BME280;18597;48.328;7.932;2022-12-18T07:04:51;100858.19;;;-13.24;100.00
32083;BME280;18597;48.328;7.932;2022-12-18T07:07:17;100856.13;;;-13.36;100.00
32083;BME280;18597;48.328;7.932;2022-12-18T07:09:43;100856.19;;;-13.34;100.00
32083;BME280;18597;48.328;7.932;2022-12-18T07:12:09;100855.50;;;-13.29;100.00
32083;BME280;18597;48.328;7.932;2022-12-18T07:14:35;100856.81;;;-13.11;100.00
32083;BME280;18597;48.328;7.932;2022-12-18T07:17:01;100860.41;;;-13.06;100.00
32083;BME280;18597;48.328;7.932;2022-12-18T07:19:26;100859.47;;;-13.08;100.00
32083;BME280;18597;48.328;7.932;2022-12-18T07:21:52;100853.22;;;-12.88;100.00
32083;BME280;18597;48.328;7.932;2022-12-18T07:24:18;100855.59;;;-12.94;100.00
32083;BME280;18597;48.328;7.932;2022-12-18T07:26:46;100857.84;;;-13.06;100.00
32083;BME280;18597;48.328;7.932;2022-12-18T07:29:12;100860.47;;;-13.03;100.00
32083;BME280;18597;48.328;7.932;2022-12-18T07:31:38;100859.00;;;-12.95;100.00
32083;BME280;18597;48.328;7.932;2022-12-18T07:34:04;100864.13;;;-12.65;100.00
32083;BME280;18597;48.328;7.932;2022-12-18T07:36:30;100870.72;;;-12.76;100.00
32083;BME280;18597;48.328;7.932;2022-12-18T07:38:56;100869.06;;;-12.73;100.00
32083;BME280;18597;48.328;7.932;2022-12-18T07:41:22;100876.59;;;-12.80;100.00
32083;BME280;18597;48.328;7.932;2022-12-18T07:43:48;100885.03;;;-12.84;100.00
32083;BME280;18597;48.328;7.932;2022-12-18T07:46:15;100880.03;;;-12.80;100.00
32083;BME280;18597;48.328;7.932;2022-12-18T07:48:43;100879.59;;;-12.65;100.00
32083;BME280;18597;48.328;7.932;2022-12-18T07:51:09;100887.28;;;-12.67;100.00
32083;BME280;18597;48.328;7.932;2022-12-18T07:53:36;100896.00;;;-12.62;100.00
32083;BME280;18597;48.328;7.932;2022-12-18T07:56:07;100886.66;;;-12.58;100.00
32083;BME280;18597;48.328;7.932;2022-12-18T07:58:34;100889.16;;;-12.29;100.00
32083;BME280;18597;48.328;7.932;2022-12-18T08:01:06;100894.06;;;-12.39;100.00
32083;BME280;18597;48.328;7.932;2022-12-18T08:03:33;100897.41;;;-12.41;100.00
32083;BME280;18597;48.328;7.932;2022-12-18T08:06:02;100906.63;;;-12.49;100.00
32083;BME280;18597;48.328;7.932;2022-12-18T08:08:29;100904.56;;;-12.31;100.00
32083;BME280;18597;48.328;7.932;2022-12-18T08:10:56;100908.22;;;-12.23;100.00
32083;BME280;18597;48.328;7.932;2022-12-18T08:13:23;100915.31;;;-12.14;100.00
32083;BME280;18597;48.328;7.932;2022-12-18T08:16:06;100913.16;;;-11.97;100.00
32083;BME280;18597;48.328;7.932;2022-12-18T08:18:33;100903.94;;;-11.88;100.00
32083;BME280;18597;48.328;7.932;2022-12-18T08:21:21;100902.84;;;-11.97;100.00
32083;BME280;18597;48.328;7.932;2022-12-18T08:23:50;100893.56;;;-11.92;100.00
32083;BME280;18597;48.328;7.932;2022-12-18T08:26:16;100897.34;;;-11.77;100.00
32083;BME280;18597;48.328;7.932;2022-12-18T08:28:43;100892.34;;;-11.70;100.00
32083;BME280;18597;48.328;7.932;2022-12-18T08:31:09;100887.63;;;-11.51;100.00
32083;BME280;18597;48.328;7.932;2022-12-18T08:33:36;100876.78;;;-11.37;100.00
32083;BME280;18597;48.328;7.932;2022-12-18T08:36:05;100877.19;;;-11.19;100.00
32083;BME280;18597;48.328;7.932;2022-12-18T08:38:32;100875.94;;;-10.97;100.00
32083;BME280;18597;48.328;7.932;2022-12-18T08:41:00;100872.97;;;-10.73;100.00
32083;BME280;18597;48.328;7.932;2022-12-18T08:43:26;100853.59;;;-10.53;100.00
32083;BME280;18597;48.328;7.932;2022-12-18T08:46:12;100848.44;;;-10.53;100.00
32083;BME280;18597;48.328;7.932;2022-12-18T08:48:38;100851.09;;;-10.50;100.00
32083;BME280;18597;48.328;7.932;2022-12-18T08:51:04;100840.84;;;-10.44;100.00
32083;BME280;18597;48.328;7.932;2022-12-18T08:53:30;100837.38;;;-10.46;100.00
32083;BME280;18597;48.328;7.932;2022-12-18T08:55:57;100833.34;;;-10.30;100.00
32083;BME280;18597;48.328;7.932;2022-12-18T08:58:23;100839.88;;;-9.99;100.00
32083;BME280;18597;48.328;7.932;2022-12-18T09:00:49;100836.06;;;-9.68;100.00
32083;BME280;18597;48.328;7.932;2022-12-18T09:03:18;100845.09;;;-9.44;100.00
32083;BME280;18597;48.328;7.932;2022-12-18T09:05:46;100849.53;;;-9.34;98.87
32083;BME280;18597;48.328;7.932;2022-12-18T09:08:12;100838.44;;;-9.26;99.29
32083;BME280;18597;48.328;7.932;2022-12-18T09:10:43;100843.50;;;-9.33;100.00
32083;BME280;18597;48.328;7.932;2022-12-18T09:13:11;100845.34;;;-9.26;100.00
32083;BME280;18597;48.328;7.932;2022-12-18T09:15:43;100846.31;;;-9.18;100.00
32083;BME280;18597;48.328;7.932;2022-12-18T09:18:11;100845.63;;;-9.05;100.00
32083;BME280;18597;48.328;7.932;2022-12-18T09:20:38;100838.00;;;-8.94;100.00
32083;BME280;18597;48.328;7.932;2022-12-18T09:23:05;100841.44;;;-8.95;100.00
32083;BME280;18597;48.328;7.932;2022-12-18T09:25:32;100839.72;;;-8.95;100.00
32083;BME280;18597;48.328;7.932;2022-12-18T09:28:00;100845.84;;;-8.88;100.00
32083;BME280;18597;48.328;7.932;2022-12-18T09:30:26;100848.47;;;-8.85;100.00
32083;BME280;18597;48.328;7.932;2022-12-18T09:32:53;100854.59;;;-8.78;100.00
32083;BME280;18597;48.328;7.932;2022-12-18T09:35:19;100854.84;;;-8.57;100.00
32083;BME280;18597;48.328;7.932;2022-12-18T09:37:44;100857.56;;;-8.46;100.00
32083;BME280;18597;48.328;7.932;2022-12-18T09:40:18;100853.25;;;-8.46;100.00
32083;BME280;18597;48.328;7.932;2022-12-18T09:42:51;100859.38;;;-8.33;100.00
32083;BME280;18597;48.328;7.932;2022-12-18T09:45:18;100858.75;;;-8.11;98.08
32083;BME280;18597;48.328;7.932;2022-12-18T09:47:45;100857.16;;;-7.99;96.87
32083;BME280;18597;48.328;7.932;2022-12-18T09:50:35;100864.09;;;-7.95;100.00
32083;BME280;18597;48.328;7.932;2022-12-18T09:53:12;100871.13;;;-7.84;100.00
32083;BME280;18597;48.328;7.932;2022-12-18T09:55:43;100873.78;;;-7.74;100.00
32083;BME280;18597;48.328;7.932;2022-12-18T10:00:52;100877.44;;;-7.52;100.00
32083;BME280;18597;48.328;7.932;2022-12-18T10:03:18;100875.81;;;-7.35;100.00
32083;BME280;18597;48.328;7.932;2022-12-18T10:06:43;100862.16;;;-7.07;96.15
32083;BME280;18597;48.328;7.932;2022-12-18T10:09:39;100864.81;;;-6.97;96.71
32083;BME280;18597;48.328;7.932;2022-12-18T10:12:17;100858.84;;;-6.78;93.11
32083;BME280;18597;48.328;7.932;2022-12-18T10:15:01;100857.19;;;-6.64;90.84
32083;BME280;18597;48.328;7.932;2022-12-18T10:20:52;100838.19;;;-6.32;89.43
32083;BME280;18597;48.328;7.932;2022-12-18T10:26:18;100835.66;;;-5.93;86.60
32083;BME280;18597;48.328;7.932;2022-12-18T10:28:44;100833.06;;;-5.93;87.12
32083;BME280;18597;48.328;7.932;2022-12-18T10:31:21;100839.13;;;-5.81;87.53
32083;BME280;18597;48.328;7.932;2022-12-18T10:33:47;100834.75;;;-5.75;86.78
32083;BME280;18597;48.328;7.932;2022-12-18T10:36:13;100837.38;;;-5.70;86.65
32083;BME280;18597;48.328;7.932;2022-12-18T10:38:40;100829.53;;;-5.49;86.18
32083;BME280;18597;48.328;7.932;2022-12-18T10:41:25;100838.19;;;-5.38;86.04
32083;BME280;18597;48.328;7.932;2022-12-18T10:44:21;100822.53;;;-5.22;85.90
32083;BME280;18597;48.328;7.932;2022-12-18T10:46:50;100819.97;;;-5.28;85.95
32083;BME280;18597;48.328;7.932;2022-12-18T10:49:25;100813.84;;;-5.12;86.46
32083;BME280;18597;48.328;7.932;2022-12-18T10:52:07;100812.91;;;-4.96;84.78
32083;BME280;18597;48.328;7.932;2022-12-18T10:54:36;100802.44;;;-4.81;84.49
32083;BME280;18597;48.328;7.932;2022-12-18T10:57:30;100799.75;;;-4.65;84.16
32083;BME280;18597;48.328;7.932;2022-12-18T10:59:59;100795.38;;;-4.57;84.05
32083;BME280;18597;48.328;7.932;2022-12-18T11:02:35;100795.34;;;-4.54;85.18
32083;BME280;18597;48.328;7.932;2022-12-18T11:05:03;100799.66;;;-4.47;85.52
32083;BME280;18597;48.328;7.932;2022-12-18T11:07:49;100792.66;;;-4.40;86.51
32083;BME280;18597;48.328;7.932;2022-12-18T11:10:19;100793.41;;;-4.25;86.77
32083;BME280;18597;48.328;7.932;2022-12-18T11:12:46;100786.38;;;-4.07;87.49
32083;BME280;18597;48.328;7.932;2022-12-18T11:15:20;100791.47;;;-3.95;87.78
32083;BME280;18597;48.328;7.932;2022-12-18T11:17:50;100780.94;;;-3.83;88.40
32083;BME280;18597;48.328;7.932;2022-12-18T11:20:36;100780.84;;;-3.72;89.07
32083;BME280;18597;48.328;7.932;2022-12-18T11:23:10;100780.66;;;-3.55;87.57
32083;BME280;18597;48.328;7.932;2022-12-18T11:25:37;100781.41;;;-3.43;87.87
32083;BME280;18597;48.328;7.932;2022-12-18T11:31:28;100780.06;;;-2.97;85.14
32083;BME280;18597;48.328;7.932;2022-12-18T11:34:10;100789.50;;;-2.87;84.67
32083;BME280;18597;48.328;7.932;2022-12-18T11:36:43;100782.66;;;-2.94;84.48
32083;BME280;18597;48.328;7.932;2022-12-18T11:39:39;100775.59;;;-2.89;86.42
32083;BME280;18597;48.328;7.932;2022-12-18T11:48:21;100771.97;;;-2.77;84.64
32083;BME280;18597;48.328;7.932;2022-12-18T11:50:54;100770.34;;;-2.88;86.46
32083;BME280;18597;48.328;7.932;2022-12-18T11:53:21;100765.13;;;-2.86;88.53
32083;BME280;18597;48.328;7.932;2022-12-18T11:59:26;100764.38;;;-2.97;89.12
32083;BME280;18597;48.328;7.932;2022-12-18T12:02:31;100746.13;;;-3.00;89.79
32083;BME280;18597;48.328;7.932;2022-12-18T12:07:48;100744.81;;;-2.69;88.80
32083;BME280;18597;48.328;7.932;2022-12-18T12:16:25;100741.56;;;-2.88;90.49
32083;BME280;18597;48.328;7.932;2022-12-18T12:19:41;100733.81;;;-2.92;90.86
32083;BME280;18597;48.328;7.932;2022-12-18T12:22:39;100743.50;;;-3.00;91.87
32083;BME280;18597;48.328;7.932;2022-12-18T12:31:45;100766.97;;;-2.94;92.91
32083;BME280;18597;48.328;7.932;2022-12-18T12:40:36;100756.19;;;-2.73;94.62
32083;BME280;18597;48.328;7.932;2022-12-18T12:43:21;100751.09;;;-2.82;92.94
32083;BME280;18597;48.328;7.932;2022-12-18T12:46:00;100747.63;;;-2.83;95.48
32083;BME280;18597;48.328;7.932;2022-12-18T12:48:59;100749.38;;;-2.83;94.84
32083;BME280;18597;48.328;7.932;2022-12-18T12:51:32;100745.91;;;-2.85;95.77
32083;BME280;18597;48.328;7.932;2022-12-18T12:54:01;100746.88;;;-2.92;97.55
32083;BME280;18597;48.328;7.932;2022-12-18T12:57:30;100742.31;;;-2.76;98.70
32083;BME280;18597;48.328;7.932;2022-12-18T13:00:10;100740.34;;;-2.61;97.05
32083;BME280;18597;48.328;7.932;2022-12-18T13:05:51;100740.19;;;-2.48;95.78
32083;BME280;18597;48.328;7.932;2022-12-18T13:08:26;100724.56;;;-2.55;95.00
32083;BME280;18597;48.328;7.932;2022-12-18T13:10:55;100713.22;;;-2.55;95.54
32083;BME280;18597;48.328;7.932;2022-12-18T13:13:53;100710.44;;;-2.44;94.54
32083;BME280;18597;48.328;7.932;2022-12-18T13:16:23;100708.81;;;-2.52;95.10
32083;BME280;18597;48.328;7.932;2022-12-18T13:18:52;100703.53;;;-2.48;96.68
32083;BME280;18597;48.328;7.932;2022-12-18T13:21:30;100702.44;;;-2.34;94.86
32083;BME280;18597;48.328;7.932;2022-12-18T13:24:21;100700.78;;;-2.39;95.44
32083;BME280;18597;48.328;7.932;2022-12-18T13:26:48;100713.88;;;-2.39;95.83
32083;BME280;18597;48.328;7.932;2022-12-18T13:29:44;100706.97;;;-2.45;96.66
32083;BME280;18597;48.328;7.932;2022-12-18T13:32:23;100702.66;;;-2.47;97.06
32083;BME280;18597;48.328;7.932;2022-12-18T13:41:04;100705.34;;;-2.54;99.09
32083;BME280;18597;48.328;7.932;2022-12-18T13:43:53;100697.47;;;-2.52;99.71
32083;BME280;18597;48.328;7.932;2022-12-18T13:46:44;100700.84;;;-2.44;99.59
32083;BME280;18597;48.328;7.932;2022-12-18T13:51:50;100696.63;;;-2.53;100.00
32083;BME280;18597;48.328;7.932;2022-12-18T13:54:33;100702.78;;;-2.58;100.00
32083;BME280;18597;48.328;7.932;2022-12-18T13:57:01;100695.06;;;-2.66;100.00
32083;BME280;18597;48.328;7.932;2022-12-18T13:59:42;100691.75;;;-2.77;100.00
32083;BME280;18597;48.328;7.932;2022-12-18T14:02:21;100688.28;;;-2.81;100.00
32083;BME280;18597;48.328;7.932;2022-12-18T14:04:48;100686.72;;;-2.92;100.00
32083;BME280;18597;48.328;7.932;2022-12-18T14:07:22;100671.81;;;-2.87;100.00
32083;BME280;18597;48.328;7.932;2022-12-18T14:09:53;100678.03;;;-2.93;100.00
32083;BME280;18597;48.328;7.932;2022-12-18T14:12:31;100679.84;;;-2.98;100.00
32083;BME280;18597;48.328;7.932;2022-12-18T14:15:42;100675.31;;;-2.85;100.00